createdAt,value
2023-11-15T00:00:10.602Z,99534.47
2023-11-15T00:02:39.665Z,99531.84
2023-11-15T00:05:09.026Z,99542.53
2023-11-15T00:07:37.594Z,99541.56
2023-11-15T00:10:07.194Z,99512.25
2023-11-15T00:12:35.653Z,99535.91
2023-11-15T00:15:05.151Z,99545.88
2023-11-15T00:17:35.173Z,99555.78
2023-11-15T00:20:05.179Z,99561.03
2023-11-15T00:22:33.741Z,99555.59
2023-11-15T00:25:02.275Z,99564.59
2023-11-15T00:27:30.921Z,99565.72
2023-11-15T00:29:59.388Z,99575.03
2023-11-15T00:32:27.862Z,99582.44
2023-11-15T00:34:57.756Z,99585.78
2023-11-15T00:37:26.166Z,99601.94
2023-11-15T00:39:54.932Z,99585.72
2023-11-15T00:42:23.362Z,99595.34
2023-11-15T00:44:51.829Z,99603.47
2023-11-15T00:47:20.351Z,99613.69
2023-11-15T00:49:48.874Z,99616.19
2023-11-15T00:52:19.114Z,99636.44
2023-11-15T00:54:47.465Z,99636.31
2023-11-15T00:57:15.929Z,99637.91
2023-11-15T00:59:48.626Z,99646.25
2023-11-15T01:02:19.668Z,99648.53
2023-11-15T01:04:48.310Z,99657.88
2023-11-15T01:07:19.159Z,99670.75
2023-11-15T01:09:47.637Z,99675.31
2023-11-15T01:12:17.023Z,99677.16
2023-11-15T01:14:45.577Z,99681.50
2023-11-15T01:17:15.377Z,99687.03
2023-11-15T01:19:44.276Z,99634.53
2023-11-15T01:22:12.854Z,99699.00
2023-11-15T01:24:42.723Z,99695.81
2023-11-15T01:27:12.504Z,99703.94
2023-11-15T01:29:40.991Z,99705.75
2023-11-15T01:32:09.338Z,99713.13
2023-11-15T01:34:37.808Z,99722.88
2023-11-15T01:37:06.317Z,99735.81
2023-11-15T01:39:34.734Z,99734.78
2023-11-15T01:42:05.300Z,99734.66
2023-11-15T01:44:35.308Z,99740.22
2023-11-15T01:47:05.986Z,99741.63
2023-11-15T01:49:34.481Z,99738.97
2023-11-15T01:52:02.981Z,99734.38
2023-11-15T01:54:32.045Z,99749.19
2023-11-15T01:57:00.561Z,99749.97
2023-11-15T01:59:30.532Z,99756.03
2023-11-15T02:01:59.148Z,99762.28
2023-11-15T02:04:27.687Z,99769.69
2023-11-15T02:06:56.795Z,99766.00
2023-11-15T02:09:25.779Z,99776.88
2023-11-15T02:11:54.516Z,99770.81
2023-11-15T02:14:23.141Z,99775.47
2023-11-15T02:16:53.275Z,99768.69
2023-11-15T02:19:21.852Z,99787.06
2023-11-15T02:21:52.231Z,99788.50
2023-11-15T02:24:22.348Z,99789.78
2023-11-15T02:26:50.978Z,99770.03
2023-11-15T02:29:19.417Z,99796.50
2023-11-15T02:31:47.936Z,99802.19
2023-11-15T02:34:17.016Z,99804.03
2023-11-15T02:36:45.382Z,99805.38
2023-11-15T02:39:14.139Z,99802.38
2023-11-15T02:41:44.053Z,99796.03
2023-11-15T02:44:12.510Z,99811.44
2023-11-15T02:46:40.940Z,99809.94
2023-11-15T02:49:09.356Z,99810.63
2023-11-15T02:51:37.761Z,99820.53
2023-11-15T02:54:06.408Z,99827.00
2023-11-15T02:56:34.796Z,99820.03
2023-11-15T02:59:04.676Z,99815.78
2023-11-15T03:01:33.178Z,99840.72
2023-11-15T03:04:01.615Z,99824.28
2023-11-15T03:06:30.023Z,99835.66
2023-11-15T03:08:58.454Z,99847.34
2023-11-15T03:11:26.993Z,99848.31
2023-11-15T03:13:55.452Z,99852.16
2023-11-15T03:16:25.417Z,99848.28
2023-11-15T03:18:54.147Z,99852.38
2023-11-15T03:21:22.791Z,99860.59
2023-11-15T03:23:51.351Z,99861.44
2023-11-15T03:26:19.765Z,99859.63
2023-11-15T03:28:48.142Z,99863.25
2023-11-15T03:31:16.544Z,99867.88
2023-11-15T03:33:48.512Z,99871.03
2023-11-15T03:36:18.007Z,99873.09
2023-11-15T03:38:46.713Z,99872.75
2023-11-15T03:41:15.113Z,99878.66
2023-11-15T03:43:43.901Z,99871.50
2023-11-15T03:46:12.719Z,99871.16
2023-11-15T03:48:41.142Z,99884.53
2023-11-15T03:51:11.189Z,99869.19
2023-11-15T03:53:39.776Z,99888.44
2023-11-15T03:56:11.141Z,99900.50
2023-11-15T03:58:41.940Z,99879.66
2023-11-15T04:01:10.955Z,99897.03
2023-11-15T04:03:39.546Z,99907.13
2023-11-15T04:06:11.170Z,99888.78
2023-11-15T04:08:42.160Z,99908.47
2023-11-15T04:11:10.852Z,99912.78
2023-11-15T04:13:39.643Z,99917.81
2023-11-15T04:16:10.091Z,99916.44
2023-11-15T04:18:39.522Z,99919.00
2023-11-15T04:21:10.067Z,99924.94
2023-11-15T04:23:39.134Z,99906.56
2023-11-15T04:26:07.538Z,99927.47
2023-11-15T04:28:35.992Z,99931.78
2023-11-15T04:31:04.996Z,99878.50
2023-11-15T04:33:33.456Z,99931.16
2023-11-15T04:36:01.946Z,99938.47
2023-11-15T04:38:31.835Z,99939.72
2023-11-15T04:41:01.030Z,99939.34
2023-11-15T04:43:29.435Z,99933.38
2023-11-15T04:45:57.882Z,99943.44
2023-11-15T04:48:26.613Z,99941.97
2023-11-15T04:50:55.932Z,99929.59
2023-11-15T04:53:25.365Z,99941.94
2023-11-15T04:55:55.189Z,99940.25
2023-11-15T04:58:23.534Z,99952.50
2023-11-15T05:00:50.951Z,99951.22
2023-11-15T05:03:20.764Z,99945.59
2023-11-15T05:05:49.347Z,99949.72
2023-11-15T05:08:17.746Z,99946.63
2023-11-15T05:10:46.312Z,99950.91
2023-11-15T05:13:16.054Z,99954.13
2023-11-15T05:15:44.395Z,99945.19
2023-11-15T05:18:12.786Z,99962.69
2023-11-15T05:20:41.250Z,99958.72
2023-11-15T05:23:09.665Z,99961.50
2023-11-15T05:25:38.075Z,99967.34
2023-11-15T05:28:07.338Z,99959.09
2023-11-15T05:30:37.184Z,99979.81
2023-11-15T05:33:05.691Z,99985.75
2023-11-15T05:35:34.154Z,99974.94
2023-11-15T05:38:02.593Z,99991.09
2023-11-15T05:40:30.955Z,99996.56
2023-11-15T05:42:59.344Z,99992.72
2023-11-15T05:45:27.899Z,100001.41
2023-11-15T05:47:57.721Z,99991.72
2023-11-15T05:50:26.196Z,100006.97
2023-11-15T05:52:54.706Z,100011.44
2023-11-15T05:55:23.066Z,100016.75
2023-11-15T05:57:51.863Z,100010.44
2023-11-15T06:00:21.449Z,100016.53
2023-11-15T06:02:50.899Z,100030.38
2023-11-15T06:05:21.638Z,100024.28
2023-11-15T06:07:50.056Z,100021.84
2023-11-15T06:10:18.803Z,100019.19
2023-11-15T06:12:47.754Z,100037.72
2023-11-15T06:15:16.656Z,100005.97
2023-11-15T06:17:47.669Z,100021.22
2023-11-15T06:20:16.523Z,100030.56
2023-11-15T06:22:47.003Z,100020.63
2023-11-15T06:25:20.041Z,100014.06
2023-11-15T06:27:49.017Z,100021.03
2023-11-15T06:30:18.599Z,100040.97
2023-11-15T06:32:47.123Z,100030.38
2023-11-15T06:35:20.159Z,100029.16
2023-11-15T06:37:50.894Z,100037.75
2023-11-15T06:40:20.060Z,100041.19
2023-11-15T06:42:48.541Z,100036.31
2023-11-15T06:45:16.878Z,100038.94
2023-11-15T06:47:45.472Z,100031.22
2023-11-15T06:50:14.299Z,100040.56
2023-11-15T06:52:42.779Z,100046.88
2023-11-15T06:55:12.788Z,100044.66
2023-11-15T06:57:42.898Z,100041.81
2023-11-15T07:00:14.170Z,100052.78
2023-11-15T07:02:43.514Z,100056.44
2023-11-15T07:05:12.746Z,100047.09
2023-11-15T07:07:41.368Z,100046.91
2023-11-15T07:10:16.385Z,100065.81
2023-11-15T07:12:45.008Z,100078.66
2023-11-15T07:15:16.737Z,100087.03
2023-11-15T07:17:45.783Z,100079.28
2023-11-15T07:20:15.785Z,100089.66
2023-11-15T07:22:44.293Z,100104.56
2023-11-15T07:25:16.339Z,100092.94
2023-11-15T07:27:45.957Z,100103.31
2023-11-15T07:30:15.594Z,100073.53
2023-11-15T07:32:44.417Z,100088.06
2023-11-15T07:35:12.837Z,100107.00
2023-11-15T07:37:42.091Z,100106.34
2023-11-15T07:40:14.313Z,100112.28
2023-11-15T07:42:44.263Z,100113.50
2023-11-15T07:45:13.307Z,100111.19
2023-11-15T07:47:43.994Z,100130.59
2023-11-15T07:50:16.542Z,100129.41
2023-11-15T07:52:46.495Z,100129.00
2023-11-15T07:55:16.436Z,100136.75
2023-11-15T07:57:46.280Z,100138.38
2023-11-15T08:00:16.804Z,100137.16
2023-11-15T08:02:45.958Z,100146.94
2023-11-15T08:05:14.547Z,100147.53
2023-11-15T08:07:43.086Z,100123.28
2023-11-15T08:10:14.564Z,100167.31
2023-11-15T08:12:45.761Z,100167.69
2023-11-15T08:15:17.384Z,100174.63
2023-11-15T08:17:47.576Z,100166.69
2023-11-15T08:20:18.683Z,100115.47
2023-11-15T08:22:47.103Z,100172.16
2023-11-15T08:25:15.596Z,100184.78
2023-11-15T08:27:45.464Z,100159.13
2023-11-15T08:30:18.578Z,100182.59
2023-11-15T08:32:48.566Z,100189.50
2023-11-15T08:35:18.561Z,100190.56
2023-11-15T08:37:47.102Z,100191.97
2023-11-15T08:40:26.151Z,100200.19
2023-11-15T08:42:59.481Z,100195.50
2023-11-15T08:45:28.153Z,100193.63
2023-11-15T08:47:59.438Z,100206.28
2023-11-15T08:50:28.533Z,100199.72
2023-11-15T08:52:57.948Z,100195.84
2023-11-15T08:55:26.502Z,100200.75
2023-11-15T08:57:54.953Z,100203.03
2023-11-15T09:00:25.730Z,100206.69
2023-11-15T09:02:54.369Z,100207.47
2023-11-15T09:05:24.397Z,100224.03
2023-11-15T09:07:53.270Z,100220.53
2023-11-15T09:10:23.920Z,100225.59
2023-11-15T09:12:53.620Z,100225.44
2023-11-15T09:15:25.652Z,100232.50
2023-11-15T09:17:54.439Z,100226.91
2023-11-15T09:20:27.795Z,100219.38
2023-11-15T09:22:59.029Z,100229.88
2023-11-15T09:25:28.312Z,100237.94
2023-11-15T09:28:00.520Z,100240.16
2023-11-15T09:30:32.437Z,100230.97
2023-11-15T09:33:04.469Z,100235.19
2023-11-15T09:38:06.403Z,100231.97
2023-11-15T09:40:34.768Z,100243.19
2023-11-15T09:43:03.453Z,100238.97
2023-11-15T09:45:37.738Z,100236.97
2023-11-15T09:48:10.362Z,100244.91
2023-11-15T09:50:42.953Z,100243.38
2023-11-15T09:53:13.138Z,100245.44
2023-11-15T09:55:43.232Z,100253.34
2023-11-15T09:58:13.012Z,100247.44
2023-11-15T10:00:47.904Z,100233.91
2023-11-15T10:03:20.961Z,100264.19
2023-11-15T10:06:00.744Z,100233.53
2023-11-15T10:08:31.294Z,100252.00
2023-11-15T10:11:08.854Z,100228.81
2023-11-15T10:13:39.638Z,100266.09
2023-11-15T10:16:25.956Z,100263.03
2023-11-15T10:18:54.511Z,100268.56
2023-11-15T10:21:24.033Z,100279.94
2023-11-15T10:23:56.259Z,100273.13
2023-11-15T10:26:39.750Z,100280.72
2023-11-15T10:29:13.907Z,100287.09
2023-11-15T10:31:54.111Z,100291.53
2023-11-15T10:34:31.070Z,100285.31
2023-11-15T10:37:11.473Z,100283.81
2023-11-15T10:39:45.669Z,100271.06
2023-11-15T10:42:16.913Z,100271.75
2023-11-15T10:44:48.891Z,100270.84
2023-11-15T10:47:22.544Z,100272.03
2023-11-15T10:49:56.591Z,100276.91
2023-11-15T10:52:26.400Z,100258.34
2023-11-15T10:54:58.993Z,100265.69
2023-11-15T10:57:29.412Z,100258.50
2023-11-15T11:00:07.548Z,100250.59
2023-11-15T11:02:42.908Z,100256.44
2023-11-15T11:05:13.588Z,100252.25
2023-11-15T11:07:58.849Z,100262.91
2023-11-15T11:10:41.780Z,100252.09
2023-11-15T11:13:20.411Z,100266.47
2023-11-15T11:15:49.250Z,100261.31
2023-11-15T11:18:21.233Z,100262.06
2023-11-15T11:21:01.677Z,100254.56
2023-11-15T11:23:34.639Z,100253.56
2023-11-15T11:26:35.958Z,100261.81
2023-11-15T11:29:05.125Z,100247.66
2023-11-15T11:31:33.643Z,100235.31
2023-11-15T11:34:11.007Z,100258.97
2023-11-15T11:36:55.035Z,100254.50
2023-11-15T11:39:25.394Z,100241.56
2023-11-15T11:41:55.840Z,100241.84
2023-11-15T11:44:26.411Z,100251.25
2023-11-15T11:47:04.994Z,100245.69
2023-11-15T11:49:48.720Z,100241.00
2023-11-15T11:52:18.800Z,100248.84
2023-11-15T11:54:53.055Z,100244.28
2023-11-15T11:57:22.869Z,100247.41
2023-11-15T12:00:01.998Z,100247.22
2023-11-15T12:02:37.373Z,100232.41
2023-11-15T12:05:08.717Z,100219.66
2023-11-15T12:07:44.018Z,100242.09
2023-11-15T12:10:14.781Z,100238.66
2023-11-15T12:12:43.726Z,100239.22
2023-11-15T12:15:14.466Z,100239.41
2023-11-15T12:17:45.935Z,100240.94
2023-11-15T12:20:29.281Z,100235.03
2023-11-15T12:23:07.551Z,100223.03
2023-11-15T12:25:44.506Z,100229.13
2023-11-15T12:28:15.725Z,100232.09
2023-11-15T12:30:45.729Z,100225.75
2023-11-15T12:33:15.322Z,100226.22
2023-11-15T12:35:46.737Z,100215.03
2023-11-15T12:38:15.681Z,100224.31
2023-11-15T12:40:45.840Z,100217.34
2023-11-15T12:43:20.767Z,100220.59
2023-11-15T12:45:50.237Z,100225.03
2023-11-15T12:48:19.051Z,100226.41
2023-11-15T12:50:49.998Z,100228.59
2023-11-15T12:53:20.135Z,100222.47
2023-11-15T12:55:51.853Z,100219.16
2023-11-15T12:58:21.607Z,100228.31
2023-11-15T13:01:01.725Z,100215.31
2023-11-15T13:03:34.988Z,100225.75
2023-11-15T13:06:13.339Z,100217.16
2023-11-15T13:08:43.713Z,100225.16
2023-11-15T13:11:15.173Z,100235.44
2023-11-15T13:13:44.943Z,100225.34
2023-11-15T13:16:13.808Z,100229.63
2023-11-15T13:18:44.170Z,100207.34
2023-11-15T13:21:15.436Z,100227.72
2023-11-15T13:23:45.847Z,100227.28
2023-11-15T13:26:16.378Z,100237.78
2023-11-15T13:28:46.099Z,100229.56
2023-11-15T13:31:18.884Z,100243.31
2023-11-15T13:33:48.907Z,100197.22
2023-11-15T13:36:21.047Z,100259.81
2023-11-15T13:38:50.095Z,100271.97
2023-11-15T13:41:23.703Z,100269.03
2023-11-15T13:43:54.359Z,100273.59
2023-11-15T13:46:25.055Z,100269.16
2023-11-15T13:48:54.659Z,100282.41
2023-11-15T13:51:25.176Z,100282.81
2023-11-15T13:53:53.939Z,100291.72
2023-11-15T13:56:22.416Z,100294.13
2023-11-15T13:58:50.861Z,100290.50
2023-11-15T14:01:19.305Z,100298.97
2023-11-15T14:03:47.852Z,100295.00
2023-11-15T14:06:16.384Z,100282.47
2023-11-15T14:08:52.256Z,100242.56
2023-11-15T14:11:29.229Z,100290.28
2023-11-15T14:13:58.409Z,100291.06
2023-11-15T14:16:27.251Z,100304.09
2023-11-15T14:18:56.483Z,100305.81
2023-11-15T14:21:25.373Z,100308.44
2023-11-15T14:23:57.469Z,100321.50
2023-11-15T14:26:26.847Z,100312.13
2023-11-15T14:28:55.777Z,100311.91
2023-11-15T14:31:24.425Z,100319.03
2023-11-15T14:33:53.363Z,100328.47
2023-11-15T14:36:26.085Z,100333.34
2023-11-15T14:38:56.107Z,100332.13
2023-11-15T14:41:24.539Z,100339.47
2023-11-15T14:43:54.777Z,100340.31
2023-11-15T14:46:26.747Z,100338.81
2023-11-15T14:48:55.413Z,100341.31
2023-11-15T14:51:24.064Z,100344.03
2023-11-15T14:53:56.982Z,100341.03
2023-11-15T14:56:28.698Z,100342.53
2023-11-15T14:58:59.396Z,100349.66
2023-11-15T15:01:29.538Z,100361.09
2023-11-15T15:03:58.054Z,100365.19
2023-11-15T15:06:27.222Z,100360.69
2023-11-15T15:08:55.838Z,100364.72
2023-11-15T15:11:25.985Z,100359.03
2023-11-15T15:13:55.825Z,100360.88
2023-11-15T15:16:24.325Z,100366.97
2023-11-15T15:18:53.492Z,100373.31
2023-11-15T15:21:23.462Z,100364.25
2023-11-15T15:23:51.973Z,100366.97
2023-11-15T15:26:24.074Z,100371.94
2023-11-15T15:28:55.007Z,100373.53
2023-11-15T15:31:24.919Z,100384.59
2023-11-15T15:33:53.317Z,100383.53
2023-11-15T15:36:22.793Z,100378.84
2023-11-15T15:38:52.367Z,100385.38
2023-11-15T15:41:23.289Z,100390.28
2023-11-15T15:43:53.830Z,100388.63
2023-11-15T15:46:24.902Z,100387.63
2023-11-15T15:48:53.405Z,100392.34
2023-11-15T15:51:22.304Z,100389.63
2023-11-15T15:53:50.753Z,100383.94
2023-11-15T15:56:19.406Z,100384.78
2023-11-15T15:58:47.994Z,100396.75
2023-11-15T16:01:16.344Z,100399.41
2023-11-15T16:03:46.238Z,100392.94
2023-11-15T16:06:14.729Z,100404.53
2023-11-15T16:08:43.202Z,100409.25
2023-11-15T16:11:11.580Z,100415.53
2023-11-15T16:13:40.039Z,100418.22
2023-11-15T16:16:10.997Z,100421.66
2023-11-15T16:18:39.437Z,100421.00
2023-11-15T16:21:09.677Z,100420.59
2023-11-15T16:23:38.189Z,100392.91
2023-11-15T16:26:07.890Z,100424.94
2023-11-15T16:28:37.065Z,100428.16
2023-11-15T16:31:06.446Z,100425.22
2023-11-15T16:33:35.672Z,100419.78
2023-11-15T16:36:04.887Z,100419.69
2023-11-15T16:38:34.633Z,100422.97
2023-11-15T16:41:05.817Z,100429.78
2023-11-15T16:43:34.207Z,100428.25
2023-11-15T16:46:03.302Z,100428.16
2023-11-15T16:48:32.674Z,100436.00
2023-11-15T16:51:01.179Z,100437.97
2023-11-15T16:53:29.632Z,100442.78
2023-11-15T16:55:59.380Z,100456.63
2023-11-15T16:58:27.750Z,100455.66
2023-11-15T17:00:56.712Z,100456.66
2023-11-15T17:03:25.245Z,100460.06
2023-11-15T17:05:53.858Z,100466.78
2023-11-15T17:08:25.910Z,100465.44
2023-11-15T17:10:54.309Z,100475.03
2023-11-15T17:13:24.466Z,100466.28
2023-11-15T17:15:54.339Z,100472.78
2023-11-15T17:18:22.879Z,100468.66
2023-11-15T17:20:52.520Z,100467.13
2023-11-15T17:23:21.053Z,100487.84
2023-11-15T17:25:52.694Z,100487.00
2023-11-15T17:28:21.088Z,100484.50
2023-11-15T17:30:51.263Z,100474.03
2023-11-15T17:33:19.752Z,100473.31
2023-11-15T17:35:48.317Z,100472.16
2023-11-15T17:38:16.922Z,100471.59
2023-11-15T17:40:45.501Z,100469.69
2023-11-15T17:43:20.097Z,100489.84
2023-11-15T17:49:25.106Z,100472.41
2023-11-15T17:51:54.605Z,100478.13
2023-11-15T17:54:24.087Z,100474.78
2023-11-15T17:56:52.685Z,100469.25
2023-11-15T17:59:21.648Z,100470.13
2023-11-15T18:01:55.870Z,100460.34
2023-11-15T18:04:27.163Z,100472.56
2023-11-15T18:06:55.671Z,100481.97
2023-11-15T18:09:24.147Z,100475.47
2023-11-15T18:11:52.578Z,100480.03
2023-11-15T18:14:20.987Z,100482.78
2023-11-15T18:16:50.752Z,100469.81
2023-11-15T18:19:22.054Z,100479.59
2023-11-15T18:21:51.881Z,100469.16
2023-11-15T18:24:20.482Z,100479.47
2023-11-15T18:26:48.961Z,100465.44
2023-11-15T18:29:17.408Z,100478.94
2023-11-15T18:31:46.035Z,100487.50
2023-11-15T18:34:17.349Z,100491.06
2023-11-15T18:36:46.371Z,100494.63
2023-11-15T18:39:16.345Z,100487.25
2023-11-15T18:41:45.651Z,100474.06
2023-11-15T18:44:17.274Z,100488.34
2023-11-15T18:46:49.463Z,100504.91
2023-11-15T18:49:21.179Z,100504.53
2023-11-15T18:51:50.486Z,100506.06
2023-11-15T18:54:19.436Z,100511.34
2023-11-15T18:56:48.173Z,100509.75
2023-11-15T18:59:16.805Z,100506.03
2023-11-15T19:01:48.873Z,100502.75
2023-11-15T19:04:18.949Z,100515.66
2023-11-15T19:06:48.267Z,100500.81
2023-11-15T19:09:17.510Z,100502.59
2023-11-15T19:11:46.322Z,100493.94
2023-11-15T19:14:14.790Z,100509.97
2023-11-15T19:16:43.244Z,100495.03
2023-11-15T19:19:11.699Z,100509.78
2023-11-15T19:21:41.777Z,100510.88
2023-11-15T19:24:14.960Z,100505.06
2023-11-15T19:26:45.759Z,100501.97
2023-11-15T19:29:14.161Z,100510.16
2023-11-15T19:31:43.236Z,100503.94
2023-11-15T19:34:13.896Z,100498.16
2023-11-15T19:36:43.692Z,100485.63
2023-11-15T19:39:12.517Z,100492.91
2023-11-15T19:41:40.921Z,100491.72
2023-11-15T19:44:11.077Z,100494.91
2023-11-15T19:46:39.858Z,100490.75
2023-11-15T19:49:09.003Z,100489.66
2023-11-15T19:51:38.596Z,100491.78
2023-11-15T19:54:09.213Z,100500.13
2023-11-15T19:56:37.800Z,100500.44
2023-11-15T19:59:06.187Z,100504.03
2023-11-15T20:01:34.572Z,100507.34
2023-11-15T20:04:05.117Z,100507.72
2023-11-15T20:06:34.154Z,100501.44
2023-11-15T20:09:02.737Z,100498.88
2023-11-15T20:11:32.552Z,100508.25
2023-11-15T20:14:01.066Z,100499.38
2023-11-15T20:16:29.576Z,100503.91
2023-11-15T20:18:58.150Z,100500.97
2023-11-15T20:21:26.621Z,100503.59
2023-11-15T20:23:55.442Z,100500.56
2023-11-15T20:26:24.139Z,100494.16
2023-11-15T20:28:54.009Z,100510.97
2023-11-15T20:31:22.707Z,100518.41
2023-11-15T20:33:51.952Z,100515.50
2023-11-15T20:36:21.274Z,100519.41
2023-11-15T20:38:49.749Z,100520.69
2023-11-15T20:41:18.423Z,100503.94
2023-11-15T20:43:46.924Z,100511.00
2023-11-15T20:46:19.807Z,100513.50
2023-11-15T20:48:49.246Z,100515.19
2023-11-15T20:51:17.796Z,100509.16
2023-11-15T20:53:46.882Z,100505.25
2023-11-15T20:56:15.274Z,100501.31
2023-11-15T20:58:43.751Z,100506.03
2023-11-15T21:01:12.258Z,100502.88
2023-11-15T21:03:42.144Z,100514.50
2023-11-15T21:06:11.298Z,100510.13
2023-11-15T21:08:39.832Z,100509.06
2023-11-15T21:11:09.794Z,100502.22
2023-11-15T21:13:39.173Z,100505.28
2023-11-15T21:16:09.042Z,100513.69
2023-11-15T21:18:37.989Z,100518.03
2023-11-15T21:21:11.744Z,100520.09
2023-11-15T21:23:42.429Z,100515.72
2023-11-15T21:26:11.474Z,100513.63
2023-11-15T21:28:42.044Z,100513.72
2023-11-15T21:31:11.379Z,100506.84
2023-11-15T21:33:39.943Z,100515.72
2023-11-15T21:36:12.407Z,100517.88
2023-11-15T21:38:41.248Z,100498.19
2023-11-15T21:41:09.955Z,100520.44
2023-11-15T21:43:38.566Z,100518.53
2023-11-15T21:46:08.613Z,100516.00
2023-11-15T21:48:37.571Z,100509.50
2023-11-15T21:51:07.189Z,100508.47
2023-11-15T21:53:37.007Z,100506.34
2023-11-15T21:56:06.710Z,100499.66
2023-11-15T21:58:35.157Z,100499.78
2023-11-15T22:01:03.509Z,100502.28
2023-11-15T22:03:31.929Z,100501.41
2023-11-15T22:06:00.477Z,100494.81
2023-11-15T22:08:31.031Z,100444.41
2023-11-15T22:11:03.261Z,100489.97
2023-11-15T22:13:31.732Z,100488.84
2023-11-15T22:16:00.408Z,100473.00
2023-11-15T22:18:31.108Z,100482.16
2023-11-15T22:20:59.828Z,100487.25
2023-11-15T22:23:29.999Z,100484.06
2023-11-15T22:25:58.593Z,100480.13
2023-11-15T22:28:29.740Z,100485.00
2023-11-15T22:30:58.319Z,100487.09
2023-11-15T22:33:26.721Z,100489.69
2023-11-15T22:35:55.145Z,100494.78
2023-11-15T22:38:25.654Z,100490.97
2023-11-15T22:40:54.059Z,100486.56
2023-11-15T22:43:22.541Z,100489.41
2023-11-15T22:45:52.482Z,100485.50
2023-11-15T22:48:21.137Z,100487.66
2023-11-15T22:50:49.667Z,100490.84
2023-11-15T22:53:19.818Z,100501.03
2023-11-15T22:55:48.398Z,100465.84
2023-11-15T22:58:18.209Z,100486.47
2023-11-15T23:00:50.339Z,100491.88
2023-11-15T23:03:20.947Z,100489.28
2023-11-15T23:05:50.883Z,100497.75
2023-11-15T23:08:19.632Z,100496.28
2023-11-15T23:10:48.056Z,100495.03
2023-11-15T23:13:19.326Z,100491.81
2023-11-15T23:15:51.540Z,100493.25
2023-11-15T23:18:22.379Z,100481.41
2023-11-15T23:20:51.156Z,100494.72
2023-11-15T23:23:19.757Z,100482.91
2023-11-15T23:25:51.352Z,100492.38
2023-11-15T23:28:19.894Z,100485.00
2023-11-15T23:30:49.197Z,100491.44
2023-11-15T23:33:18.231Z,100487.16
2023-11-15T23:35:48.831Z,100487.09
2023-11-15T23:38:17.204Z,100493.44
2023-11-15T23:40:45.558Z,100495.09
2023-11-15T23:43:14.113Z,100495.66
2023-11-15T23:45:44.749Z,100499.38
2023-11-15T23:48:13.940Z,100495.53
2023-11-15T23:50:42.510Z,100499.91
2023-11-15T23:53:12.351Z,100497.56
2023-11-15T23:55:40.722Z,100487.22
2023-11-15T23:58:10.995Z,100501.56
